Time;durP1;ratioP1;P1;durP2;ratioP2;P2;SDS_P1;SDS_P2;PMS_P1;PMS_P2;Temp;Humidity;BMP_temperature;BMP_pressure;BME280_temperature;BME280_humidity;BME280_pressure;Samples;Min_cycle;Max_cycle;Signal;HPM_P1;HPM_P2
2024/03/25 00:01:28;;;;;;;6.47;0.70;;;;;;;9.10;90.55;99241.31;5032055;28;20026;-69
2024/03/25 00:03:54;;;;;;;1.42;0.75;;;;;;;9.33;89.93;99248.28;5037623;28;20551;-66
2024/03/25 00:06:19;;;;;;;0.85;0.60;;;;;;;9.42;88.97;99241.41;5022330;28;20575;-67
2024/03/25 00:08:45;;;;;;;1.23;0.70;;;;;;;9.46;88.67;99252.16;5033942;28;20485;-68
2024/03/25 00:11:10;;;;;;;4.38;1.13;;;;;;;9.31;88.39;99248.66;5019453;28;20041;-67
2024/03/25 00:13:36;;;;;;;1.52;0.80;;;;;;;9.45;88.42;99247.91;5035873;28;20037;-67
2024/03/25 00:16:01;;;;;;;0.45;0.45;;;;;;;9.17;89.38;99255.91;5032543;28;20095;-67
2024/03/25 00:18:27;;;;;;;0.93;0.77;;;;;;;9.13;88.72;99257.81;5030630;28;20117;-67
2024/03/25 00:20:53;;;;;;;2.47;1.08;;;;;;;9.15;88.53;99256.28;5037234;28;20120;-70
2024/03/25 00:23:18;;;;;;;0.75;0.47;;;;;;;9.10;88.42;99254.75;5056042;28;20047;-65
2024/03/25 00:25:44;;;;;;;1.80;1.10;;;;;;;9.36;88.48;99264.41;5032801;28;20060;-67
2024/03/25 00:28:10;;;;;;;1.85;1.00;;;;;;;9.47;86.60;99269.78;5016900;28;20471;-66
2024/03/25 00:30:35;;;;;;;0.77;0.73;;;;;;;9.52;86.57;99274.81;5032977;28;20034;-66
2024/03/25 00:33:01;;;;;;;1.35;1.08;;;;;;;9.43;85.79;99271.69;5033259;28;20491;-67
2024/03/25 00:35:27;;;;;;;0.65;0.60;;;;;;;9.49;87.03;99272.88;5039079;28;20037;-66
2024/03/25 00:37:53;;;;;;;1.58;1.02;;;;;;;9.44;86.52;99278.63;5053756;28;20100;-66
2024/03/25 00:40:20;;;;;;;2.75;0.90;;;;;;;9.48;86.81;99282.09;5031639;28;20029;-66
2024/03/25 00:42:46;;;;;;;4.63;1.17;;;;;;;9.20;87.10;99282.00;5034501;28;20030;-66
2024/03/25 00:45:11;;;;;;;1.10;0.82;;;;;;;9.34;87.77;99284.72;5049775;28;20029;-66
2024/03/25 00:47:37;;;;;;;1.27;0.80;;;;;;;9.28;87.91;99284.34;5037350;28;20115;-67
2024/03/25 00:50:03;;;;;;;2.33;0.73;;;;;;;9.48;86.91;99290.94;5039403;28;20033;-66
2024/03/25 00:52:28;;;;;;;3.88;1.15;;;;;;;9.35;86.96;99287.03;5025985;28;20036;-67
2024/03/25 00:54:54;;;;;;;6.45;0.70;;;;;;;9.57;87.42;99293.22;5029288;28;20511;-67
2024/03/25 00:57:19;;;;;;;1.08;0.60;;;;;;;9.64;85.29;99290.56;5033753;28;20029;-65
2024/03/25 00:59:45;;;;;;;0.85;0.73;;;;;;;9.54;86.78;99294.00;5033040;28;20499;-65
2024/03/25 01:02:10;;;;;;;2.70;1.27;;;;;;;9.63;85.79;99295.19;5038898;28;20052;-67
2024/03/25 01:04:36;;;;;;;2.50;0.73;;;;;;;9.63;85.28;99313.22;5024541;28;20525;-68
2024/03/25 01:07:01;;;;;;;0.50;0.50;;;;;;;9.43;85.72;99296.66;5010266;28;20025;-66
2024/03/25 01:09:27;;;;;;;0.80;0.80;;;;;;;9.50;86.11;99307.44;5038595;28;20025;-68
2024/03/25 01:11:52;;;;;;;1.38;0.70;;;;;;;9.66;85.81;99307.06;5029437;28;20025;-68
2024/03/25 01:14:18;;;;;;;1.50;0.75;;;;;;;9.69;85.84;99312.47;5054654;28;20549;-68
2024/03/25 01:16:43;;;;;;;0.70;0.60;;;;;;;9.74;85.52;99316.69;5055781;28;20060;-67
2024/03/25 01:19:09;;;;;;;0.77;0.68;;;;;;;9.64;85.84;99314.75;5028386;28;20036;-67
2024/03/25 01:21:34;;;;;;;3.13;0.90;;;;;;;9.75;85.34;99323.59;5050675;28;20544;-66
2024/03/25 01:24:00;;;;;;;2.33;1.00;;;;;;;9.62;86.33;99323.19;5032587;28;20494;-66
2024/03/25 01:26:26;;;;;;;1.85;0.95;;;;;;;9.66;86.83;99317.81;5041750;28;20078;-66
2024/03/25 01:28:52;;;;;;;1.25;0.82;;;;;;;9.74;85.84;99322.06;5046333;28;20034;-66
2024/03/25 01:31:17;;;;;;;1.15;0.88;;;;;;;9.59;87.07;99323.19;5037702;28;20044;-67
2024/03/25 01:33:43;;;;;;;4.15;1.33;;;;;;;9.31;89.32;99321.16;5023122;28;20032;-67
2024/03/25 01:36:11;;;;;;;2.25;1.00;;;;;;;9.47;88.48;99331.59;5040864;28;20123;-67
2024/03/25 01:38:36;;;;;;;1.42;0.90;;;;;;;9.42;89.23;99330.06;5037270;28;20110;-67
2024/03/25 01:41:09;;;;;;;3.90;1.05;;;;;;;9.38;89.89;99331.19;5046855;28;20025;-67
2024/03/25 01:43:35;;;;;;;1.92;1.27;;;;;;;9.37;89.61;99329.66;5033780;28;20117;-66
2024/03/25 01:46:01;;;;;;;1.20;0.70;;;;;;;9.36;90.49;99334.25;5012623;28;20060;-67
2024/03/25 01:48:27;;;;;;;2.50;1.00;;;;;;;9.41;89.74;99323.13;5041236;28;20063;-68
2024/03/25 01:50:53;;;;;;;2.45;1.23;;;;;;;9.56;89.73;99338.13;5033035;28;20029;-66
2024/03/25 01:53:19;;;;;;;3.45;1.65;;;;;;;9.62;89.51;99336.63;5040766;28;20025;-70
2024/03/25 01:55:46;;;;;;;2.35;1.10;;;;;;;9.52;90.20;99337.38;5041501;28;20029;-66
2024/03/25 01:58:15;;;;;;;0.73;0.70;;;;;;;9.33;90.03;99342.31;5037403;28;20029;-67
2024/03/25 02:00:42;;;;;;;2.60;1.10;;;;;;;9.39;91.27;99343.50;5033299;28;20087;-67
2024/03/25 02:03:08;;;;;;;4.30;0.88;;;;;;;9.40;91.37;99353.06;5027541;28;20036;-67
2024/03/25 02:05:34;;;;;;;3.70;1.15;;;;;;;9.65;90.17;99346.63;5031026;28;20028;-66
2024/03/25 02:08:00;;;;;;;1.85;1.13;;;;;;;9.70;89.49;99356.22;5034573;28;20033;-67
2024/03/25 02:10:27;;;;;;;4.32;1.13;;;;;;;9.66;89.34;99342.00;5032933;28;20028;-66
2024/03/25 02:12:54;;;;;;;1.63;0.95;;;;;;;9.68;89.48;99355.84;5033518;28;20025;-68
2024/03/25 02:15:19;;;;;;;2.72;1.48;;;;;;;9.34;90.19;99359.94;5027152;28;20726;-66
2024/03/25 02:17:45;;;;;;;0.80;0.80;;;;;;;9.49;90.58;99364.22;5033572;28;20025;-68
2024/03/25 02:20:12;;;;;;;4.57;1.27;;;;;;;9.32;91.14;99362.25;5019179;28;20467;-67
2024/03/25 02:22:38;;;;;;;4.22;1.25;;;;;;;9.61;90.29;99361.97;5047477;28;20036;-67
2024/03/25 02:25:09;;;;;;;7.45;1.92;;;;;;;9.55;89.36;99363.50;5037995;28;20018;-66
2024/03/25 02:27:36;;;;;;;1.90;1.00;;;;;;;9.53;90.35;99373.06;5023788;28;20494;-65
2024/03/25 02:30:12;;;;;;;2.47;0.82;;;;;;;9.46;91.03;99367.69;5014480;28;20029;-65
2024/03/25 02:32:37;;;;;;;3.80;1.10;;;;;;;9.53;90.89;99368.47;5051843;28;20048;-65
2024/03/25 02:35:06;;;;;;;1.35;1.10;;;;;;;9.52;90.78;99371.53;5033832;28;20029;-65
2024/03/25 02:37:32;;;;;;;1.08;0.80;;;;;;;9.57;89.87;99365.78;5016511;28;20045;-68
2024/03/25 02:39:59;;;;;;;8.23;1.88;;;;;;;9.58;89.83;99375.41;5031415;28;20138;-66
2024/03/25 02:42:28;;;;;;;2.22;1.00;;;;;;;9.47;89.43;99378.03;5031423;28;20040;-66
2024/03/25 02:44:55;;;;;;;2.28;0.80;;;;;;;9.50;89.39;99373.84;5011621;28;20175;-67
2024/03/25 02:47:20;;;;;;;4.20;0.82;;;;;;;9.62;89.53;99385.00;5034340;28;20124;-67
2024/03/25 02:49:46;;;;;;;0.77;0.77;;;;;;;9.63;88.86;99396.53;5035843;28;20112;-65
2024/03/25 02:52:12;;;;;;;2.55;1.90;;;;;;;9.61;88.60;99398.81;5037513;28;20033;-66
2024/03/25 02:54:37;;;;;;;5.57;0.88;;;;;;;9.26;88.67;99395.97;5030189;28;20049;-68
2024/03/25 02:57:03;;;;;;;2.42;1.00;;;;;;;9.23;88.23;99391.38;5039818;28;20040;-68
2024/03/25 02:59:28;;;;;;;1.13;0.77;;;;;;;9.47;88.24;99398.75;5032622;28;20056;-66
2024/03/25 03:01:53;;;;;;;0.85;0.52;;;;;;;9.42;87.54;99391.06;5032630;28;20029;-67
2024/03/25 03:04:19;;;;;;;0.80;0.73;;;;;;;9.52;87.16;99390.34;5029529;28;20402;-71
2024/03/25 03:06:44;;;;;;;0.95;0.70;;;;;;;9.56;86.54;99399.19;5033467;28;20087;-66
2024/03/25 03:09:10;;;;;;;2.28;0.68;;;;;;;9.52;86.02;99407.25;5042729;28;20029;-67
2024/03/25 03:11:35;;;;;;;1.13;0.60;;;;;;;9.48;85.86;99408.38;5061007;28;20454;-67
2024/03/25 03:14:01;;;;;;;0.57;0.50;;;;;;;9.37;85.89;99415.63;5027192;28;20049;-69
2024/03/25 03:16:26;;;;;;;1.40;0.60;;;;;;;9.23;86.19;99410.97;5034744;28;20404;-66
2024/03/25 03:18:52;;;;;;;1.27;1.05;;;;;;;9.33;85.36;99420.22;5014492;28;20455;-66
2024/03/25 03:21:17;;;;;;;1.63;0.85;;;;;;;9.20;85.70;99422.44;5053880;28;20026;-67
2024/03/25 03:23:43;;;;;;;1.20;0.50;;;;;;;8.97;86.62;99440.69;5064055;28;20039;-67
2024/03/25 03:26:08;;;;;;;0.40;0.40;;;;;;;9.23;86.23;99443.19;5046286;28;20017;-68
2024/03/25 03:28:34;;;;;;;0.35;0.35;;;;;;;9.24;85.99;99454.69;5045236;28;20059;-67
2024/03/25 03:30:59;;;;;;;4.22;0.82;;;;;;;9.28;86.10;99439.34;5048808;28;20021;-67
2024/03/25 03:33:25;;;;;;;0.88;0.70;;;;;;;9.03;86.99;99448.03;5031962;28;20071;-66
2024/03/25 03:35:52;;;;;;;2.65;0.90;;;;;;;9.05;87.38;99461.88;5022780;28;20399;-66
2024/03/25 03:38:18;;;;;;;0.98;0.88;;;;;;;9.06;88.07;99463.41;5031143;28;20067;-67
2024/03/25 03:40:55;;;;;;;1.35;0.60;;;;;;;9.19;87.68;99465.78;5024224;28;20017;-66
2024/03/25 03:43:20;;;;;;;3.50;0.60;;;;;;;9.00;89.11;99470.25;5028432;28;20029;-67
2024/03/25 03:45:46;;;;;;;1.15;0.80;;;;;;;9.19;89.09;99466.56;5030553;28;20013;-68
2024/03/25 03:48:11;;;;;;;1.23;0.98;;;;;;;9.29;88.02;99473.16;5048359;28;20086;-67
2024/03/25 03:50:37;;;;;;;1.27;0.70;;;;;;;9.31;88.57;99478.91;5030216;28;20040;-66
2024/03/25 03:53:02;;;;;;;1.42;1.02;;;;;;;9.37;87.89;99474.72;5047572;28;20040;-67
2024/03/25 03:55:28;;;;;;;3.80;0.90;;;;;;;9.47;87.44;99488.22;5051243;28;20037;-66
2024/03/25 03:57:53;;;;;;;1.50;0.50;;;;;;;9.28;88.30;99495.75;5046964;28;20430;-67
2024/03/25 04:00:19;;;;;;;3.60;1.30;;;;;;;9.38;87.87;99493.16;5047856;28;20115;-67
2024/03/25 04:02:44;;;;;;;1.02;0.63;;;;;;;9.27;88.87;99496.94;5049420;28;20029;-66
2024/03/25 04:05:10;;;;;;;0.77;0.65;;;;;;;9.10;89.22;99499.09;5035652;28;20031;-67
2024/03/25 04:07:35;;;;;;;0.70;0.70;;;;;;;9.05;89.28;99502.16;5047007;28;20029;-68
2024/03/25 04:10:01;;;;;;;0.60;0.60;;;;;;;8.94;89.43;99512.00;5028796;28;20049;-69
2024/03/25 04:12:26;;;;;;;1.48;0.60;;;;;;;9.07;89.66;99515.97;5052619;28;20032;-66
2024/03/25 04:14:54;;;;;;;1.02;0.80;;;;;;;9.23;88.25;99498.81;5032128;28;20048;-67
2024/03/25 04:17:21;;;;;;;3.83;0.85;;;;;;;9.39;87.79;99508.13;5031024;28;20506;-68
2024/03/25 04:19:48;;;;;;;3.75;1.23;;;;;;;9.20;87.38;99500.31;5045061;28;20486;-67
2024/03/25 04:22:13;;;;;;;2.15;0.70;;;;;;;9.34;87.78;99519.22;5026815;28;20557;-67
2024/03/25 04:24:39;;;;;;;2.75;2.55;;;;;;;9.09;87.99;99519.06;5026358;28;20034;-67
2024/03/25 04:27:04;;;;;;;2.42;1.00;;;;;;;9.16;87.98;99533.66;5038856;28;20026;-67
2024/03/25 04:29:30;;;;;;;0.95;0.57;;;;;;;9.27;87.71;99531.84;5011327;28;20514;-67
2024/03/25 04:31:55;;;;;;;0.93;0.75;;;;;;;9.09;88.46;99543.22;5028054;28;20053;-67
2024/03/25 04:34:21;;;;;;;4.30;0.55;;;;;;;9.03;87.88;99550.09;5026736;28;20026;-67
2024/03/25 04:36:47;;;;;;;4.05;0.60;;;;;;;9.35;87.48;99547.63;5042117;28;20057;-67
2024/03/25 04:39:12;;;;;;;2.95;0.63;;;;;;;9.40;86.46;99544.59;5042026;28;20029;-68
2024/03/25 04:41:37;;;;;;;0.95;0.60;;;;;;;9.51;85.54;99545.44;5031585;28;20039;-67
2024/03/25 04:44:03;;;;;;;1.02;0.70;;;;;;;9.29;86.39;99562.53;5034180;28;20083;-67
2024/03/25 04:46:28;;;;;;;1.73;0.65;;;;;;;9.24;86.37;99562.13;5027905;28;20090;-66
2024/03/25 04:48:54;;;;;;;0.32;0.32;;;;;;;9.35;85.71;99566.44;5033027;28;20021;-66
2024/03/25 04:51:19;;;;;;;1.08;0.65;;;;;;;9.19;85.79;99567.84;5015291;28;20041;-66
2024/03/25 04:53:45;;;;;;;0.98;0.47;;;;;;;9.18;86.04;99571.66;5042947;28;20040;-67
2024/03/25 04:56:10;;;;;;;0.73;0.70;;;;;;;9.29;85.62;99581.34;5033123;28;20029;-68
2024/03/25 04:58:36;;;;;;;0.73;0.60;;;;;;;9.43;85.05;99578.78;5041956;28;20113;-68
2024/03/25 05:01:01;;;;;;;2.35;0.50;;;;;;;9.43;84.87;99583.38;5032544;28;20037;-68
2024/03/25 05:03:27;;;;;;;1.70;0.60;;;;;;;9.20;84.87;99580.91;5027619;28;20040;-68
2024/03/25 05:05:52;;;;;;;1.17;0.98;;;;;;;9.14;85.03;99584.31;5028952;28;20041;-67
2024/03/25 05:08:18;;;;;;;0.57;0.57;;;;;;;9.34;84.54;99588.28;5021067;28;20021;-67
2024/03/25 05:10:43;;;;;;;1.02;0.60;;;;;;;9.29;84.10;99580.59;5012757;28;20038;-68
2024/03/25 05:13:09;;;;;;;1.80;0.60;;;;;;;9.15;84.03;99586.63;5047458;28;20402;-67
2024/03/25 05:15:35;;;;;;;0.75;0.60;;;;;;;9.23;83.71;99582.06;5028882;28;20095;-67
2024/03/25 05:18:00;;;;;;;2.05;1.02;;;;;;;9.29;83.40;99585.97;5031422;28;20026;-67
2024/03/25 05:20:27;;;;;;;0.65;0.60;;;;;;;9.27;83.29;99588.25;5047682;28;20075;-67
2024/03/25 05:22:52;;;;;;;2.67;0.50;;;;;;;9.29;82.75;99585.97;5029778;28;20025;-70
2024/03/25 05:25:18;;;;;;;3.92;0.85;;;;;;;9.34;82.41;99596.34;5029186;28;20025;-67
2024/03/25 05:27:43;;;;;;;4.88;1.55;;;;;;;9.11;82.81;99596.56;5044966;28;20069;-67
2024/03/25 05:30:09;;;;;;;3.85;0.65;;;;;;;8.99;84.22;99594.94;5036303;28;20133;-69
2024/03/25 05:32:34;;;;;;;2.72;0.80;;;;;;;9.02;83.77;99604.91;5035227;28;20051;-67
2024/03/25 05:35:01;;;;;;;1.02;0.60;;;;;;;9.00;84.24;99601.81;5035050;28;20037;-67
2024/03/25 05:37:27;;;;;;;1.23;0.60;;;;;;;9.17;83.72;99602.38;5046511;28;20040;-67
2024/03/25 05:39:52;;;;;;;1.13;0.55;;;;;;;9.03;83.80;99622.59;5049900;28;20045;-67
2024/03/25 05:42:17;;;;;;;0.75;0.52;;;;;;;9.05;83.76;99614.94;5024802;28;20017;-67
2024/03/25 05:44:45;;;;;;;1.13;0.60;;;;;;;9.17;84.09;99621.16;5029882;28;20105;-66
2024/03/25 05:47:11;;;;;;;0.75;0.60;;;;;;;9.19;84.09;99624.25;5033723;28;20048;-69
2024/03/25 05:49:37;;;;;;;0.40;0.40;;;;;;;9.28;83.76;99613.97;5046063;28;20061;-68
2024/03/25 05:52:02;;;;;;;1.38;0.75;;;;;;;9.34;84.13;99621.31;5067799;28;20536;-69
2024/03/25 05:54:27;;;;;;;0.43;0.32;;;;;;;9.44;83.65;99627.91;5055425;28;20035;-68
2024/03/25 05:56:53;;;;;;;4.25;1.15;;;;;;;9.31;83.63;99630.09;5051269;28;20172;-67
2024/03/25 05:59:18;;;;;;;0.65;0.57;;;;;;;9.38;83.63;99640.16;5035628;28;20056;-67
2024/03/25 06:01:44;;;;;;;1.27;0.70;;;;;;;9.53;83.62;99633.75;5009911;28;20100;-68
2024/03/25 06:04:09;;;;;;;0.80;0.80;;;;;;;9.58;83.16;99631.47;5032576;28;20478;-67
2024/03/25 06:06:35;;;;;;;0.90;0.50;;;;;;;9.64;82.64;99646.09;5026736;28;20025;-68
2024/03/25 06:09:00;;;;;;;3.47;0.73;;;;;;;9.60;83.42;99644.56;5029519;28;20052;-67
2024/03/25 06:11:26;;;;;;;1.33;0.82;;;;;;;9.61;83.36;99636.13;5043019;28;20034;-67
2024/03/25 06:13:51;;;;;;;1.83;0.98;;;;;;;9.70;83.21;99638.47;5024670;28;20048;-68
2024/03/25 06:16:17;;;;;;;0.90;0.50;;;;;;;9.69;83.14;99640.41;5042615;28;20021;-68
2024/03/25 06:18:43;;;;;;;0.60;0.60;;;;;;;9.78;82.92;99635.47;5030727;28;20102;-67
2024/03/25 06:21:08;;;;;;;2.80;0.93;;;;;;;9.84;82.88;99643.94;5042760;28;20094;-68
2024/03/25 06:23:34;;;;;;;2.17;1.08;;;;;;;9.77;82.69;99649.28;5029927;28;20067;-69
2024/03/25 06:25:59;;;;;;;0.55;0.55;;;;;;;9.78;83.63;99648.13;5027213;28;20514;-67
2024/03/25 06:28:25;;;;;;;1.92;0.77;;;;;;;9.75;83.58;99654.25;5044305;28;20160;-67
2024/03/25 06:36:20;;;;;;;2.17;1.08;;;;;;;9.72;83.22;99663.06;5031341;28;20063;-67
2024/03/25 06:38:46;;;;;;;0.82;0.65;;;;;;;9.79;83.23;99663.88;5027410;28;20029;-67
2024/03/25 06:41:11;;;;;;;1.60;0.90;;;;;;;9.87;82.83;99665.47;5025834;28;20031;-68
2024/03/25 06:43:41;;;;;;;1.13;0.90;;;;;;;9.89;82.64;99681.25;5047254;28;20036;-68
2024/03/25 06:46:07;;;;;;;2.63;0.98;;;;;;;9.82;82.51;99678.50;5049273;28;20025;-67
2024/03/25 06:48:34;;;;;;;0.90;0.90;;;;;;;9.76;82.58;99674.63;5032278;28;20022;-67
2024/03/25 06:51:02;;;;;;;4.70;1.13;;;;;;;9.80;82.50;99678.09;5028921;28;20124;-66
2024/03/25 06:53:28;;;;;;;1.08;0.88;;;;;;;9.80;82.27;99691.53;5030137;28;20041;-68
2024/03/25 06:56:03;;;;;;;6.22;1.33;;;;;;;9.86;82.07;99690.84;5061557;28;20045;-67
2024/03/25 06:58:29;;;;;;;0.82;0.63;;;;;;;9.83;82.25;99696.94;5025611;28;20044;-66
2024/03/25 07:01:03;;;;;;;2.33;0.90;;;;;;;9.77;82.03;99703.06;5029448;28;20120;-68
2024/03/25 07:03:29;;;;;;;1.08;0.80;;;;;;;9.82;82.62;99710.75;5043327;28;20033;-65
2024/03/25 07:05:55;;;;;;;1.55;0.68;;;;;;;9.85;82.13;99710.03;5030643;28;20025;-64
2024/03/25 07:08:21;;;;;;;0.40;0.40;;;;;;;9.74;82.87;99703.78;5010044;28;20033;-65
2024/03/25 07:10:46;;;;;;;5.20;1.10;;;;;;;9.80;82.81;99707.69;5031450;28;20053;-64
2024/03/25 07:13:13;;;;;;;1.67;0.73;;;;;;;9.79;83.27;99711.53;5027166;28;20535;-70
2024/03/25 07:15:39;;;;;;;1.88;0.90;;;;;;;9.69;83.27;99717.59;5031533;28;20029;-65
2024/03/25 07:18:05;;;;;;;1.52;0.98;;;;;;;9.75;83.50;99724.16;5027030;28;20036;-65
2024/03/25 07:20:31;;;;;;;1.27;0.95;;;;;;;9.66;83.54;99721.78;5027481;28;20033;-65
2024/03/25 07:22:57;;;;;;;1.92;1.17;;;;;;;9.60;84.35;99730.56;5025792;28;20030;-67
2024/03/25 07:25:24;;;;;;;1.15;0.82;;;;;;;9.66;85.54;99719.09;5031237;28;20127;-67
2024/03/25 07:27:50;;;;;;;1.48;0.98;;;;;;;9.66;85.79;99729.06;5032930;28;20045;-65
2024/03/25 07:30:15;;;;;;;0.80;0.60;;;;;;;9.74;85.65;99727.97;5048221;28;20036;-66
2024/03/25 07:32:41;;;;;;;0.98;0.73;;;;;;;9.56;86.27;99727.06;5030609;28;20033;-66
2024/03/25 07:35:07;;;;;;;5.90;1.42;;;;;;;9.58;86.25;99735.53;5049143;28;20033;-67
2024/03/25 07:37:33;;;;;;;1.27;0.60;;;;;;;9.54;86.56;99735.47;5032504;28;20041;-67
2024/03/25 07:39:59;;;;;;;1.67;1.00;;;;;;;9.76;85.36;99734.53;5029627;28;20060;-67
2024/03/25 07:42:25;;;;;;;2.22;1.15;;;;;;;9.85;85.58;99743.06;5015665;28;20041;-66
2024/03/25 07:44:50;;;;;;;2.15;1.02;;;;;;;9.91;85.36;99740.81;5030366;28;20083;-66
2024/03/25 07:47:16;;;;;;;0.68;0.68;;;;;;;10.01;85.09;99740.09;5049613;28;20033;-65
2024/03/25 07:49:41;;;;;;;1.17;0.90;;;;;;;10.13;84.72;99739.06;5047874;28;20033;-64
2024/03/25 07:52:07;;;;;;;2.53;1.15;;;;;;;10.18;84.69;99741.44;5033476;28;20042;-67
2024/03/25 07:54:32;;;;;;;2.05;1.27;;;;;;;10.24;83.99;99746.06;5047635;28;20057;-67
2024/03/25 07:56:58;;;;;;;1.92;1.05;;;;;;;10.41;83.43;99756.19;5037811;28;20025;-65
2024/03/25 07:59:24;;;;;;;2.35;1.13;;;;;;;10.29;83.61;99753.03;5032407;28;20502;-66
2024/03/25 08:01:49;;;;;;;4.78;1.20;;;;;;;10.32;83.20;99760.34;5037879;28;20044;-67
2024/03/25 08:04:15;;;;;;;2.90;0.80;;;;;;;10.18;82.65;99752.94;5042128;28;20029;-68
2024/03/25 08:06:40;;;;;;;2.30;0.70;;;;;;;10.23;82.98;99749.91;5037996;28;20034;-65
2024/03/25 08:09:05;;;;;;;4.05;1.00;;;;;;;10.36;82.43;99756.53;5035242;28;20376;-67
2024/03/25 08:11:34;;;;;;;0.65;0.63;;;;;;;10.34;82.94;99758.03;5039619;28;20051;-65
2024/03/25 08:13:59;;;;;;;1.60;1.05;;;;;;;10.47;82.51;99756.59;5047703;28;20041;-65
2024/03/25 08:16:25;;;;;;;2.75;0.98;;;;;;;10.37;83.03;99762.69;5024442;28;20654;-64
2024/03/25 08:18:50;;;;;;;1.30;0.68;;;;;;;10.39;82.56;99769.25;5017268;28;20514;-66
2024/03/25 08:21:17;;;;;;;3.83;0.60;;;;;;;10.41;80.85;99769.66;5039626;28;20033;-67
2024/03/25 08:23:45;;;;;;;8.65;1.00;;;;;;;10.27;80.70;99769.53;5031619;28;20036;-67
2024/03/25 08:26:11;;;;;;;3.40;0.90;;;;;;;10.41;80.86;99776.94;5034585;28;20033;-66
2024/03/25 08:28:37;;;;;;;1.70;0.73;;;;;;;10.32;80.78;99777.25;5049886;28;20395;-65
2024/03/25 08:31:05;;;;;;;3.53;0.47;;;;;;;10.20;80.28;99771.41;5035808;28;20500;-66
2024/03/25 08:33:31;;;;;;;2.22;1.05;;;;;;;10.28;80.03;99781.84;5030893;28;20156;-68
2024/03/25 08:35:57;;;;;;;3.95;0.77;;;;;;;10.47;79.98;99778.13;5031128;28;20021;-66
2024/03/25 08:38:22;;;;;;;1.67;1.10;;;;;;;10.44;79.58;99790.41;5033407;28;20118;-66
2024/03/25 08:40:48;;;;;;;0.75;0.73;;;;;;;10.40;80.34;99784.25;5035386;28;20032;-66
2024/03/25 08:43:13;;;;;;;1.73;1.10;;;;;;;10.46;80.69;99787.34;5025522;28;20048;-66
2024/03/25 08:45:40;;;;;;;1.17;0.82;;;;;;;10.63;80.84;99794.75;5043972;28;20132;-68
2024/03/25 08:48:06;;;;;;;1.52;0.80;;;;;;;10.74;80.54;99793.66;5031269;28;20037;-66
2024/03/25 08:50:32;;;;;;;1.13;1.02;;;;;;;10.86;79.69;99795.25;5029153;28;20029;-66
2024/03/25 08:52:57;;;;;;;1.42;1.05;;;;;;;10.88;79.67;99788.38;5013218;28;20035;-66
2024/03/25 08:55:23;;;;;;;8.13;1.60;;;;;;;10.85;79.61;99789.13;5023287;28;20051;-68
2024/03/25 08:57:49;;;;;;;1.17;0.98;;;;;;;10.96;79.63;99791.06;5017622;28;20037;-65
2024/03/25 09:00:15;;;;;;;4.93;1.33;;;;;;;11.11;80.26;99787.31;5048004;28;20048;-67
2024/03/25 09:02:40;;;;;;;6.20;1.88;;;;;;;11.65;80.88;99787.09;5033573;28;20032;-66
2024/03/25 09:05:07;;;;;;;2.70;1.33;;;;;;;11.92;77.26;99791.00;5064155;28;20116;-66
2024/03/25 09:07:32;;;;;;;2.50;1.63;;;;;;;12.34;76.12;99790.22;5045179;28;20020;-67
2024/03/25 09:12:42;;;;;;;2.47;1.00;;;;;;;13.07;69.88;99793.91;5034093;28;20037;-66
2024/03/25 09:15:09;;;;;;;7.47;1.20;;;;;;;13.30;69.87;99794.19;5022397;28;20034;-68
2024/03/25 09:17:35;;;;;;;3.92;1.40;;;;;;;13.35;69.15;99805.41;5033834;28;20021;-66
2024/03/25 09:20:04;;;;;;;1.40;1.00;;;;;;;13.14;68.23;99802.00;5034728;28;20064;-66
2024/03/25 09:22:29;;;;;;;1.23;0.80;;;;;;;12.65;71.75;99803.69;5033364;28;20033;-65
2024/03/25 09:24:57;;;;;;;2.30;0.90;;;;;;;12.35;75.73;99800.63;5030676;28;20104;-67
2024/03/25 09:27:23;;;;;;;4.45;1.33;;;;;;;12.25;77.18;99800.63;5029454;28;20036;-67
2024/03/25 09:29:48;;;;;;;7.65;1.25;;;;;;;12.17;77.80;99807.19;5045549;28;20128;-66
2024/03/25 09:32:13;;;;;;;0.95;0.70;;;;;;;11.72;77.50;99803.31;5013080;28;20048;-65
2024/03/25 09:34:39;;;;;;;3.80;1.30;;;;;;;11.58;80.06;99801.31;5024142;28;20060;-65
2024/03/25 09:37:04;;;;;;;1.40;0.75;;;;;;;11.56;80.25;99805.53;5029917;28;20090;-66
2024/03/25 09:39:30;;;;;;;1.25;0.90;;;;;;;11.52;80.95;99805.53;5024601;28;20025;-66
2024/03/25 09:42:01;;;;;;;1.63;0.93;;;;;;;11.55;81.91;99814.78;5029431;28;20064;-66
2024/03/25 09:44:31;;;;;;;0.98;0.70;;;;;;;11.45;81.69;99796.66;5045823;28;20483;-65
2024/03/25 09:46:57;;;;;;;1.60;0.73;;;;;;;11.41;81.16;99798.56;5046479;28;20398;-66
2024/03/25 09:49:24;;;;;;;3.35;0.50;;;;;;;11.59;80.69;99808.25;5027641;28;20029;-70
2024/03/25 09:51:50;;;;;;;1.50;0.75;;;;;;;11.59;79.09;99810.19;5028692;28;20064;-66
2024/03/25 09:54:16;;;;;;;5.40;0.82;;;;;;;11.50;78.11;99807.06;5028635;28;20049;-66
2024/03/25 09:56:42;;;;;;;3.72;0.55;;;;;;;11.52;78.02;99804.75;5015289;28;20061;-68
2024/03/25 09:59:07;;;;;;;8.20;1.85;;;;;;;11.66;75.80;99802.91;5029599;28;20044;-66
2024/03/25 10:01:33;;;;;;;2.85;0.43;;;;;;;11.98;73.33;99800.22;5061139;28;20125;-66
2024/03/25 10:03:58;;;;;;;4.82;1.42;;;;;;;12.40;71.98;99808.34;5030234;28;20040;-66
2024/03/25 10:06:24;;;;;;;2.53;0.80;;;;;;;13.05;70.96;99805.13;5029873;28;20465;-68
2024/03/25 10:08:53;;;;;;;10.80;0.90;;;;;;;13.56;65.30;99807.22;5030579;28;20036;-66
2024/03/25 10:11:19;;;;;;;1.83;0.63;;;;;;;13.86;64.37;99818.22;5030982;28;20056;-65
2024/03/25 10:13:45;;;;;;;2.10;0.85;;;;;;;13.71;62.89;99816.00;5064395;28;20025;-65
2024/03/25 10:16:11;;;;;;;2.45;0.98;;;;;;;13.73;62.02;99808.25;5037199;28;20034;-65
2024/03/25 10:18:37;;;;;;;2.63;0.95;;;;;;;13.42;62.88;99805.34;5034650;28;20527;-65
2024/03/25 10:21:03;;;;;;;3.47;0.70;;;;;;;13.23;61.89;99808.53;5045274;28;20847;-67
2024/03/25 10:23:35;;;;;;;1.70;0.65;;;;;;;13.10;61.62;99814.78;5030586;28;20384;-68
2024/03/25 10:26:00;;;;;;;1.58;0.68;;;;;;;12.86;62.17;99810.94;5028706;28;20037;-66
2024/03/25 10:28:25;;;;;;;6.20;1.02;;;;;;;12.85;62.51;99809.41;5054776;28;20406;-66
2024/03/25 10:30:51;;;;;;;1.00;0.77;;;;;;;13.02;63.86;99805.88;5031608;28;20037;-66
2024/03/25 10:33:17;;;;;;;0.88;0.73;;;;;;;13.20;63.35;99819.38;5046973;28;20030;-65
2024/03/25 10:35:46;;;;;;;8.55;1.55;;;;;;;13.07;61.89;99816.31;5046679;28;20037;-65
2024/03/25 10:38:16;;;;;;;1.40;0.95;;;;;;;13.13;62.73;99841.00;5040293;28;20037;-66
2024/03/25 10:40:44;;;;;;;2.55;0.60;;;;;;;12.83;65.02;99832.59;5048451;28;20120;-67
2024/03/25 10:43:13;;;;;;;3.30;0.50;;;;;;;12.58;67.22;99835.34;5033195;28;20086;-67
2024/03/25 10:45:41;;;;;;;1.00;0.75;;;;;;;12.48;67.61;99833.41;5028960;28;20022;-66
2024/03/25 10:48:17;;;;;;;0.57;0.40;;;;;;;12.20;65.94;99833.41;5027567;28;20143;-66
2024/03/25 10:50:46;;;;;;;1.17;0.40;;;;;;;12.03;67.39;99834.94;5031844;28;20029;-66
2024/03/25 10:53:13;;;;;;;1.15;0.47;;;;;;;12.09;66.66;99830.72;5044495;28;20483;-66
2024/03/25 10:55:40;;;;;;;0.95;0.60;;;;;;;12.12;65.41;99826.44;5032100;28;20037;-66
2024/03/25 10:58:07;;;;;;;0.47;0.40;;;;;;;12.19;65.58;99834.56;5030629;28;20479;-66
2024/03/25 11:00:35;;;;;;;2.33;0.57;;;;;;;12.13;62.27;99828.78;5033521;28;20033;-66
2024/03/25 11:03:01;;;;;;;2.38;0.85;;;;;;;12.16;63.49;99832.63;5030516;28;20495;-66
2024/03/25 11:05:27;;;;;;;5.47;0.70;;;;;;;12.38;62.87;99826.84;5016773;28;20017;-66
2024/03/25 11:07:52;;;;;;;3.05;0.55;;;;;;;12.55;63.41;99826.06;5035710;28;20115;-66
2024/03/25 11:10:18;;;;;;;6.07;0.70;;;;;;;12.64;62.29;99831.06;5032125;28;20033;-68
2024/03/25 11:12:43;;;;;;;0.90;0.65;;;;;;;12.72;62.05;99829.13;5033795;28;20029;-67
2024/03/25 11:15:09;;;;;;;1.02;0.63;;;;;;;12.92;60.44;99820.19;5029768;28;20041;-66
2024/03/25 11:17:36;;;;;;;7.07;0.82;;;;;;;13.12;60.34;99836.78;5067862;28;20047;-66
2024/03/25 11:20:14;;;;;;;4.50;0.95;;;;;;;13.29;58.42;99822.41;5030976;28;20410;-65
2024/03/25 11:22:52;;;;;;;1.75;0.60;;;;;;;13.48;56.97;99809.19;5047840;28;20037;-66
2024/03/25 11:25:20;;;;;;;2.25;0.57;;;;;;;13.36;56.40;99820.44;5033966;28;20041;-66
2024/03/25 11:27:47;;;;;;;1.70;0.90;;;;;;;13.65;56.41;99826.47;5031476;28;20116;-66
2024/03/25 11:30:15;;;;;;;1.95;0.73;;;;;;;13.84;54.33;99823.25;5049681;28;20060;-66
2024/03/25 11:32:55;;;;;;;1.92;0.57;;;;;;;13.90;53.85;99821.69;5032927;28;20402;-66
2024/03/25 11:35:20;;;;;;;1.27;0.50;;;;;;;14.09;52.58;99826.56;5026382;28;20044;-65
2024/03/25 11:37:46;;;;;;;1.05;0.75;;;;;;;14.28;52.14;99820.66;5030153;28;20021;-66
2024/03/25 11:40:13;;;;;;;0.60;0.52;;;;;;;14.35;50.14;99817.09;5032599;28;20087;-66
2024/03/25 11:42:43;;;;;;;2.50;0.70;;;;;;;14.58;49.80;99813.78;5030128;28;20033;-66